Alpine Forest, California
Current Conditions -  °F | °C
As of 10:35 PM on Thursday 27 Nov 2014 (Local Time) from KTSP Reporting Station
Clear Clear  
Wind Chill:   Ceiling: Unl
Heat Index:   Visibility: 10mi
Dew Point: -7°   Wind: 0mph
Humidity: 48%   Direction: NA
Pressure: 30.2"   Gusts: NA
Location:  35.1338°N, 118.552°W
Report Text: KTSP 280635Z AUTO 00000KT 10SM CLR 03/M07 A3020 RMK AO2
Loading
Personal Weather Stations






























Interactive Weather Map New forecast layout! Learn more

10-Day Weather Forecast

Advertisements
Track Severe Weather on mobile